Time;durP1;ratioP1;P1;durP2;ratioP2;P2;SDS_P1;SDS_P2;PMS_P1;PMS_P2;Temp;Humidity;BMP_temperature;BMP_pressure;BME280_temperature;BME280_humidity;BME280_pressure;Samples;Min_cycle;Max_cycle;Signal;HPM_P1;HPM_P2
2023/04/26 00:00:13;;;;;;;10.60;3.00;;;20.30;99.90;;;;;;5045208;28;20397;-63
2023/04/26 00:02:40;;;;;;;10.07;2.80;;;20.20;99.90;;;;;;5038789;28;20701;-64
2023/04/26 00:05:08;;;;;;;17.33;2.83;;;20.30;99.90;;;;;;5042951;28;20489;-63
2023/04/26 00:07:36;;;;;;;8.80;2.65;;;20.40;99.90;;;;;;5038658;28;20493;-63
2023/04/26 00:10:09;;;;;;;11.15;2.60;;;20.60;99.90;;;;;;5045413;28;20037;-63
2023/04/26 00:12:37;;;;;;;13.15;3.20;;;20.70;99.90;;;;;;5042360;28;20045;-63
2023/04/26 00:15:05;;;;;;;11.95;2.47;;;20.80;99.90;;;;;;5036548;28;20393;-63
2023/04/26 00:17:33;;;;;;;15.18;3.15;;;21.00;99.90;;;;;;5044769;28;20295;-63
2023/04/26 00:20:01;;;;;;;15.38;2.67;;;21.10;99.90;;;;;;5046340;28;20040;-63
2023/04/26 00:22:28;;;;;;;9.52;3.17;;;21.30;99.90;;;;;;5038178;28;20032;-63
2023/04/26 00:24:56;;;;;;;10.80;2.28;;;21.60;99.90;;;;;;5043763;28;20494;-65
2023/04/26 00:27:23;;;;;;;10.18;2.30;;;21.70;99.90;;;;;;5036609;28;20103;-63
2023/04/26 00:29:50;;;;;;;11.10;2.75;;;21.80;99.90;;;;;;5048057;28;20136;-64
2023/04/26 00:32:18;;;;;;;13.70;2.35;;;21.90;99.90;;;;;;5035657;28;20127;-64
2023/04/26 00:34:45;;;;;;;7.32;1.85;;;22.20;99.90;;;;;;5040506;28;20056;-64
2023/04/26 00:37:13;;;;;;;10.55;2.25;;;22.40;99.90;;;;;;5039441;28;20413;-66
2023/04/26 00:39:40;;;;;;;12.38;2.45;;;22.50;99.90;;;;;;5046085;28;20028;-68
2023/04/26 00:42:08;;;;;;;5.90;2.42;;;22.60;99.90;;;;;;5039561;28;20071;-69
2023/04/26 00:44:37;;;;;;;8.38;2.00;;;22.50;99.90;;;;;;5038439;28;20012;-67
2023/04/26 00:47:05;;;;;;;10.10;2.10;;;22.50;99.90;;;;;;5042933;28;20564;-68
2023/04/26 00:49:32;;;;;;;8.85;2.33;;;22.60;99.90;;;;;;5039661;28;20777;-68
2023/04/26 00:52:00;;;;;;;8.27;1.80;;;22.70;99.90;;;;;;5042298;28;20021;-68
2023/04/26 00:54:28;;;;;;;8.23;2.05;;;22.90;99.90;;;;;;5038044;28;20030;-67
2023/04/26 00:56:55;;;;;;;9.20;1.85;;;23.00;99.90;;;;;;5038619;28;20044;-70
2023/04/26 00:59:23;;;;;;;12.18;3.08;;;23.20;99.90;;;;;;5039344;28;20093;-70
2023/04/26 01:01:51;;;;;;;11.95;2.10;;;23.30;99.90;;;;;;5035543;28;20032;-69
2023/04/26 01:04:18;;;;;;;10.00;2.10;;;23.30;99.90;;;;;;5036935;28;20076;-69
2023/04/26 01:06:46;;;;;;;10.02;2.10;;;23.30;99.90;;;;;;5017178;28;20081;-69
2023/04/26 01:09:14;;;;;;;8.07;1.92;;;23.30;99.90;;;;;;5023860;28;20025;-68
2023/04/26 01:11:43;;;;;;;11.50;2.67;;;23.40;99.90;;;;;;5039141;28;20026;-70
2023/04/26 01:14:10;;;;;;;11.77;2.72;;;23.40;99.90;;;;;;5043954;28;20501;-71
2023/04/26 01:16:39;;;;;;;7.35;2.28;;;23.60;99.90;;;;;;5046399;28;20029;-70
2023/04/26 01:19:14;;;;;;;14.48;3.25;;;23.70;99.90;;;;;;5033458;28;20112;-69
2023/04/26 01:21:42;;;;;;;13.25;3.67;;;23.80;99.90;;;;;;5024023;28;20481;-68
2023/04/26 01:24:10;;;;;;;10.60;2.50;;;23.80;99.90;;;;;;5020410;28;20149;-69
2023/04/26 01:26:44;;;;;;;11.93;3.08;;;23.90;99.90;;;;;;5041707;28;20074;-69
2023/04/26 01:29:18;;;;;;;7.80;2.72;;;24.10;99.90;;;;;;5040658;28;20041;-69
2023/04/26 01:31:47;;;;;;;10.57;2.28;;;24.20;99.90;;;;;;5038497;28;20029;-68
2023/04/26 01:34:15;;;;;;;8.95;2.45;;;24.20;99.90;;;;;;5031818;28;20041;-69
2023/04/26 01:36:42;;;;;;;8.93;2.63;;;24.30;99.90;;;;;;5028452;28;20033;-67
2023/04/26 01:39:10;;;;;;;9.20;2.65;;;24.50;99.90;;;;;;5041220;28;20025;-67
2023/04/26 01:41:38;;;;;;;8.07;2.53;;;24.70;99.90;;;;;;5043321;28;20048;-68
2023/04/26 01:44:05;;;;;;;10.80;2.28;;;25.00;99.90;;;;;;5044635;28;20029;-68
2023/04/26 01:46:33;;;;;;;12.70;2.80;;;25.00;99.90;;;;;;5043937;28;20049;-68
2023/04/26 01:49:00;;;;;;;10.23;1.95;;;25.20;99.90;;;;;;5035959;28;20513;-67
2023/04/26 01:51:28;;;;;;;9.65;1.80;;;25.40;99.90;;;;;;5038894;28;20029;-68
2023/04/26 01:53:55;;;;;;;12.52;2.60;;;25.40;99.90;;;;;;5027104;28;20075;-69
2023/04/26 01:56:24;;;;;;;9.77;3.13;;;25.40;99.90;;;;;;5040083;28;20100;-68
2023/04/26 01:58:51;;;;;;;8.65;2.80;;;25.50;99.90;;;;;;5044162;28;20028;-69
2023/04/26 02:01:19;;;;;;;8.43;2.22;;;25.60;99.90;;;;;;5041754;28;20029;-68
2023/04/26 02:03:48;;;;;;;10.68;1.80;;;25.50;99.90;;;;;;5036735;28;20505;-69
2023/04/26 02:06:15;;;;;;;10.27;2.58;;;25.50;99.90;;;;;;5039644;28;20074;-69
2023/04/26 02:08:43;;;;;;;5.57;1.40;;;25.40;99.90;;;;;;5041414;28;20021;-68
2023/04/26 02:11:10;;;;;;;10.13;1.70;;;25.30;99.90;;;;;;5046811;28;20032;-69
2023/04/26 02:13:38;;;;;;;10.52;1.88;;;25.40;99.90;;;;;;5043011;28;20030;-69
2023/04/26 02:16:06;;;;;;;11.63;2.17;;;25.30;99.90;;;;;;5029864;28;20359;-68
2023/04/26 02:18:34;;;;;;;12.93;2.03;;;25.20;99.90;;;;;;5049621;28;20497;-70
2023/04/26 02:21:01;;;;;;;6.20;2.13;;;25.10;99.90;;;;;;5047391;28;20390;-69
2023/04/26 02:23:29;;;;;;;8.75;2.17;;;25.20;99.90;;;;;;5046655;28;20057;-68
2023/04/26 02:25:56;;;;;;;8.07;1.58;;;25.20;99.90;;;;;;5046185;28;20029;-69
2023/04/26 02:28:24;;;;;;;7.53;1.83;;;25.30;99.90;;;;;;5037482;28;20088;-68
2023/04/26 02:30:51;;;;;;;7.20;1.73;;;25.30;99.90;;;;;;5047072;28;20428;-69
2023/04/26 02:33:19;;;;;;;11.73;1.50;;;25.20;99.90;;;;;;5045002;28;20064;-70
2023/04/26 02:35:46;;;;;;;10.18;3.20;;;25.00;99.90;;;;;;5048429;28;20078;-70
2023/04/26 02:38:14;;;;;;;7.28;1.80;;;24.80;99.90;;;;;;5045778;28;20021;-69
2023/04/26 02:40:41;;;;;;;10.52;1.85;;;24.50;99.90;;;;;;5046975;28;20045;-71
2023/04/26 02:43:09;;;;;;;8.20;1.80;;;24.20;99.90;;;;;;5045464;28;20543;-71
2023/04/26 02:45:42;;;;;;;11.13;1.58;;;23.90;99.90;;;;;;5040359;28;20029;-69
2023/04/26 02:48:09;;;;;;;6.88;2.28;;;24.00;99.90;;;;;;5045796;28;20120;-70
2023/04/26 02:50:37;;;;;;;9.63;1.90;;;24.20;99.90;;;;;;5045040;28;20487;-70
2023/04/26 02:53:04;;;;;;;12.02;2.28;;;24.40;99.90;;;;;;5037942;28;20601;-70
2023/04/26 02:55:32;;;;;;;8.05;2.15;;;24.60;99.90;;;;;;5037744;28;20075;-67
2023/04/26 02:57:59;;;;;;;8.85;2.05;;;24.60;99.90;;;;;;5048807;28;20112;-68
2023/04/26 03:00:27;;;;;;;10.27;1.75;;;24.80;99.90;;;;;;5035150;28;20040;-68
2023/04/26 03:02:55;;;;;;;15.30;2.03;;;25.00;99.90;;;;;;5047341;28;20419;-68
2023/04/26 03:05:23;;;;;;;7.18;1.60;;;25.00;99.90;;;;;;5042538;28;20026;-68
2023/04/26 03:07:50;;;;;;;8.48;1.90;;;25.20;99.90;;;;;;5021885;28;20111;-68
2023/04/26 03:10:18;;;;;;;10.45;1.73;;;25.20;99.90;;;;;;5050283;28;20045;-68
2023/04/26 03:12:45;;;;;;;14.63;2.97;;;25.00;99.90;;;;;;5035137;28;20037;-68
2023/04/26 03:15:13;;;;;;;7.45;1.83;;;24.90;99.90;;;;;;5045756;28;20386;-69
2023/04/26 03:17:40;;;;;;;12.38;1.65;;;25.10;99.90;;;;;;5046193;28;20017;-68
2023/04/26 03:20:09;;;;;;;8.30;1.38;;;24.80;99.90;;;;;;5050307;28;20501;-68
2023/04/26 03:22:37;;;;;;;6.78;1.27;;;24.80;99.90;;;;;;5040613;28;20028;-69
2023/04/26 03:25:04;;;;;;;7.88;1.73;;;24.90;99.90;;;;;;5049242;28;20048;-68
2023/04/26 03:27:32;;;;;;;6.60;1.65;;;24.70;99.90;;;;;;5027120;28;20028;-68
2023/04/26 03:29:59;;;;;;;7.97;2.00;;;24.60;99.90;;;;;;5049143;28;20032;-68
2023/04/26 03:32:27;;;;;;;6.63;1.88;;;24.50;99.90;;;;;;5049175;28;20440;-68
2023/04/26 03:34:54;;;;;;;22.95;2.10;;;24.30;99.90;;;;;;5050001;28;20021;-69
2023/04/26 03:37:22;;;;;;;7.88;1.98;;;24.20;99.90;;;;;;5038961;28;20100;-68
2023/04/26 03:39:51;;;;;;;7.25;1.80;;;24.20;99.90;;;;;;5043789;28;20446;-68
2023/04/26 03:42:25;;;;;;;7.97;1.67;;;24.30;99.90;;;;;;5048073;28;20021;-68
2023/04/26 03:44:55;;;;;;;5.32;1.80;;;24.60;99.90;;;;;;5043010;28;20116;-68
2023/04/26 03:47:23;;;;;;;5.20;1.38;;;24.90;99.90;;;;;;5043381;28;20037;-68
2023/04/26 03:49:50;;;;;;;8.88;2.03;;;25.00;99.90;;;;;;5046224;28;20390;-68
2023/04/26 03:52:18;;;;;;;6.53;1.77;;;25.00;99.90;;;;;;5039766;28;20033;-68
2023/04/26 03:54:46;;;;;;;5.32;1.70;;;25.00;99.90;;;;;;5043354;28;20116;-67
2023/04/26 03:57:13;;;;;;;7.32;1.58;;;25.00;99.90;;;;;;5038212;28;20017;-68
2023/04/26 03:59:41;;;;;;;10.10;3.25;;;25.00;99.90;;;;;;5038337;28;20021;-68
2023/04/26 04:02:08;;;;;;;7.20;1.65;;;24.80;99.90;;;;;;5045448;28;20647;-68
2023/04/26 04:04:36;;;;;;;10.30;1.38;;;24.60;99.90;;;;;;5036422;28;20462;-67
2023/04/26 04:07:03;;;;;;;9.60;1.75;;;24.60;99.90;;;;;;5035550;28;20064;-67
2023/04/26 04:09:31;;;;;;;8.65;1.73;;;24.50;99.90;;;;;;5046043;28;20385;-66
2023/04/26 04:11:58;;;;;;;8.98;2.63;;;24.30;99.90;;;;;;5045911;28;20033;-68
2023/04/26 04:14:25;;;;;;;10.40;2.25;;;24.20;99.90;;;;;;5043378;28;20040;-67
2023/04/26 04:16:53;;;;;;;5.72;1.90;;;24.30;99.90;;;;;;5030984;28;20633;-68
2023/04/26 04:19:20;;;;;;;10.07;1.50;;;24.40;99.90;;;;;;5046493;28;20037;-68
2023/04/26 04:21:48;;;;;;;7.88;1.55;;;24.40;99.90;;;;;;5038721;28;20108;-67
2023/04/26 04:24:16;;;;;;;7.38;1.80;;;24.40;99.90;;;;;;5035765;28;20036;-68
2023/04/26 04:26:43;;;;;;;6.05;1.85;;;24.20;99.90;;;;;;5050193;28;21921;-66
2023/04/26 04:29:11;;;;;;;5.78;1.88;;;24.20;99.90;;;;;;5040563;28;20021;-68
2023/04/26 04:31:38;;;;;;;6.80;2.03;;;24.10;99.90;;;;;;5043659;28;20028;-70
2023/04/26 04:34:07;;;;;;;7.72;1.63;;;24.20;99.90;;;;;;5040198;28;20029;-70
2023/04/26 04:36:34;;;;;;;6.75;1.48;;;24.00;99.90;;;;;;5044474;28;20024;-70
2023/04/26 04:39:03;;;;;;;6.63;1.20;;;23.70;99.90;;;;;;5046811;28;20064;-69
2023/04/26 04:41:31;;;;;;;2.67;1.23;;;23.50;99.90;;;;;;5043898;28;20107;-69
2023/04/26 04:43:59;;;;;;;9.68;2.00;;;23.40;99.90;;;;;;5043774;28;20032;-68
2023/04/26 04:46:26;;;;;;;17.92;3.40;;;23.50;99.90;;;;;;5037147;28;20041;-69
2023/04/26 04:48:54;;;;;;;13.38;1.90;;;23.60;99.90;;;;;;5036901;28;20021;-68
2023/04/26 04:51:21;;;;;;;7.22;2.53;;;23.70;99.90;;;;;;5038931;28;20025;-70
2023/04/26 04:53:52;;;;;;;8.00;1.98;;;23.70;99.90;;;;;;5040502;28;20068;-69
2023/04/26 04:56:20;;;;;;;7.53;2.08;;;23.70;99.90;;;;;;5040261;28;20032;-68
2023/04/26 04:58:48;;;;;;;13.10;2.05;;;23.70;99.90;;;;;;5037321;28;20646;-68
2023/04/26 05:01:15;;;;;;;5.38;1.67;;;23.80;99.90;;;;;;5036623;28;20052;-69
2023/04/26 05:03:43;;;;;;;9.77;2.33;;;23.80;99.90;;;;;;5041599;28;20401;-69
2023/04/26 05:06:10;;;;;;;5.70;1.80;;;23.70;99.90;;;;;;5044337;28;20491;-68
2023/04/26 05:08:41;;;;;;;10.05;2.00;;;23.50;99.90;;;;;;5033491;28;20025;-68
2023/04/26 05:11:17;;;;;;;7.70;1.50;;;23.50;99.90;;;;;;5035655;28;20485;-68
2023/04/26 05:13:46;;;;;;;5.82;1.60;;;23.40;99.90;;;;;;5019726;28;20048;-66
2023/04/26 05:16:13;;;;;;;8.70;1.88;;;23.30;99.90;;;;;;5036109;28;20075;-67
2023/04/26 05:18:45;;;;;;;8.43;2.08;;;23.30;99.90;;;;;;5024962;28;20473;-67
2023/04/26 05:21:12;;;;;;;8.70;2.08;;;23.30;99.90;;;;;;5037265;28;20096;-66
2023/04/26 05:23:40;;;;;;;10.00;2.35;;;23.20;99.90;;;;;;5040407;28;20048;-67
2023/04/26 05:26:10;;;;;;;9.48;1.88;;;23.10;99.90;;;;;;5034753;28;20029;-67
2023/04/26 05:28:37;;;;;;;5.55;1.65;;;23.00;99.90;;;;;;5037375;28;20024;-68
2023/04/26 05:31:04;;;;;;;7.82;2.05;;;22.80;99.90;;;;;;5041454;28;20030;-68
2023/04/26 05:33:32;;;;;;;7.38;1.75;;;22.80;99.90;;;;;;5037331;28;20064;-68
2023/04/26 05:36:00;;;;;;;4.80;1.50;;;22.60;99.90;;;;;;5020842;28;20029;-68
2023/04/26 05:38:28;;;;;;;7.85;1.77;;;22.40;99.90;;;;;;5047649;28;20047;-68
2023/04/26 05:40:56;;;;;;;8.68;1.85;;;22.30;99.90;;;;;;5041709;28;20392;-67
2023/04/26 05:43:24;;;;;;;5.72;1.63;;;22.20;99.90;;;;;;5044701;28;20037;-67
2023/04/26 05:45:55;;;;;;;8.30;1.63;;;22.00;99.90;;;;;;5022382;28;20432;-66
2023/04/26 05:48:34;;;;;;;6.43;1.50;;;21.90;99.90;;;;;;5042390;28;20029;-67
2023/04/26 05:51:02;;;;;;;4.70;1.10;;;21.70;99.90;;;;;;5025884;28;20090;-68
2023/04/26 05:53:56;;;;;;;8.52;1.67;;;21.70;99.90;;;;;;5023619;28;20040;-67
2023/04/26 05:56:24;;;;;;;8.52;1.92;;;21.80;99.90;;;;;;5017428;28;20029;-68
2023/04/26 05:59:02;;;;;;;;;;;;;;;;;;;;;
2023/04/26 06:01:30;;;;;;;5.15;2.08;;;21.90;99.90;;;;;;5034741;28;20051;-68
2023/04/26 06:03:58;;;;;;;4.90;1.40;;;21.90;99.90;;;;;;5035108;28;20025;-67
2023/04/26 06:06:28;;;;;;;6.80;1.80;;;22.00;99.90;;;;;;5045218;28;20035;-66
2023/04/26 06:08:55;;;;;;;4.47;1.65;;;22.00;99.90;;;;;;5043220;28;20481;-66
2023/04/26 06:11:23;;;;;;;7.18;1.17;;;21.90;99.90;;;;;;5040978;28;20492;-67
2023/04/26 06:13:50;;;;;;;8.70;1.55;;;21.90;99.90;;;;;;5045904;28;20036;-67
2023/04/26 06:16:18;;;;;;;11.48;1.92;;;21.70;99.90;;;;;;5041337;28;20478;-66
2023/04/26 06:18:45;;;;;;;3.42;1.10;;;21.50;99.90;;;;;;5035390;28;20044;-66
2023/04/26 06:21:13;;;;;;;3.22;0.80;;;21.30;99.90;;;;;;5037323;28;20381;-67
2023/04/26 06:23:40;;;;;;;6.97;1.58;;;21.10;99.90;;;;;;5041134;28;20469;-66
2023/04/26 06:26:08;;;;;;;6.90;1.70;;;21.10;99.90;;;;;;5046720;28;20025;-67
2023/04/26 06:28:35;;;;;;;8.65;2.05;;;21.00;99.90;;;;;;5045841;28;20028;-67
2023/04/26 06:31:03;;;;;;;6.18;1.58;;;21.00;99.90;;;;;;5040019;28;20025;-67
2023/04/26 06:33:30;;;;;;;8.27;1.63;;;20.90;99.90;;;;;;5028618;28;20040;-68
2023/04/26 06:35:57;;;;;;;8.45;1.30;;;20.90;99.90;;;;;;5043992;28;20028;-67
2023/04/26 06:38:25;;;;;;;3.55;0.90;;;20.80;99.90;;;;;;5038351;28;20029;-68
2023/04/26 06:40:56;;;;;;;6.93;1.42;;;20.70;99.90;;;;;;5043208;28;20064;-68
2023/04/26 06:43:26;;;;;;;8.27;1.30;;;20.60;99.90;;;;;;5041811;28;20426;-67
2023/04/26 06:45:57;;;;;;;9.35;1.58;;;20.60;99.90;;;;;;5035843;28;20037;-68
2023/04/26 06:48:28;;;;;;;8.13;1.73;;;20.50;99.90;;;;;;5038087;28;20518;-69
2023/04/26 06:50:55;;;;;;;6.38;1.27;;;20.50;99.90;;;;;;5037650;28;20025;-68
2023/04/26 06:53:23;;;;;;;4.18;1.42;;;20.50;99.90;;;;;;5040735;28;20030;-68
2023/04/26 06:55:52;;;;;;;5.90;1.45;;;20.50;99.90;;;;;;5045653;28;20028;-68
2023/04/26 06:58:20;;;;;;;8.20;1.70;;;20.40;99.90;;;;;;5049755;28;20055;-69
2023/04/26 07:00:50;;;;;;;5.82;1.15;;;20.50;99.90;;;;;;5052500;28;21522;-68
2023/04/26 07:03:18;;;;;;;6.38;1.33;;;20.50;99.90;;;;;;5044750;28;20413;-68
2023/04/26 07:05:46;;;;;;;8.13;1.05;;;20.50;99.90;;;;;;5038547;28;20029;-69
2023/04/26 07:08:16;;;;;;;4.00;1.40;;;20.50;99.90;;;;;;5025582;28;20033;-68
2023/04/26 07:10:43;;;;;;;5.13;1.70;;;20.50;99.90;;;;;;5047124;28;20021;-68
2023/04/26 07:13:12;;;;;;;5.95;1.58;;;20.40;99.90;;;;;;5053834;28;20046;-69
2023/04/26 07:15:40;;;;;;;4.95;1.30;;;20.40;99.90;;;;;;5042385;28;20043;-68
2023/04/26 07:18:11;;;;;;;8.52;1.52;;;20.30;99.90;;;;;;5040549;28;20021;-70
2023/04/26 07:20:42;;;;;;;6.03;1.88;;;20.10;99.90;;;;;;5030709;28;20024;-70
2023/04/26 07:23:09;;;;;;;6.38;1.13;;;20.10;99.90;;;;;;5040152;28;20021;-70
2023/04/26 07:25:37;;;;;;;5.53;1.40;;;19.90;99.90;;;;;;5022213;28;20382;-69
2023/04/26 07:28:07;;;;;;;6.93;1.30;;;19.80;99.90;;;;;;5040479;28;20568;-72
2023/04/26 07:30:35;;;;;;;8.18;1.50;;;19.80;99.90;;;;;;5044928;28;20067;-69
2023/04/26 07:33:02;;;;;;;8.45;1.98;;;19.70;99.90;;;;;;5047831;28;20061;-73
2023/04/26 07:35:34;;;;;;;6.38;1.30;;;19.60;99.90;;;;;;5044929;28;20026;-70
2023/04/26 07:38:02;;;;;;;9.35;2.85;;;19.50;99.90;;;;;;5047520;28;20029;-71
2023/04/26 07:40:30;;;;;;;7.35;1.92;;;19.40;99.90;;;;;;5043939;28;20036;-71
2023/04/26 07:42:57;;;;;;;6.47;1.95;;;19.30;99.90;;;;;;5047414;28;20532;-70
2023/04/26 07:45:28;;;;;;;7.55;1.00;;;19.10;99.90;;;;;;5044651;28;20378;-69
2023/04/26 07:47:58;;;;;;;6.15;1.98;;;19.00;99.90;;;;;;5050320;28;20446;-66
2023/04/26 07:50:25;;;;;;;5.85;1.98;;;18.90;99.90;;;;;;5027228;28;20612;-64
2023/04/26 07:52:53;;;;;;;8.18;1.67;;;18.90;99.90;;;;;;5025220;28;20420;-64
2023/04/26 07:55:23;;;;;;;16.67;2.50;;;18.80;99.90;;;;;;5048294;28;20021;-64
2023/04/26 07:57:54;;;;;;;7.88;1.35;;;18.70;99.90;;;;;;5038438;28;20029;-64
2023/04/26 08:00:21;;;;;;;4.82;1.42;;;18.60;99.90;;;;;;5028201;28;20029;-63
2023/04/26 08:02:49;;;;;;;5.40;2.17;;;18.60;99.90;;;;;;5026659;28;20091;-64
2023/04/26 08:05:17;;;;;;;9.75;1.63;;;18.60;99.90;;;;;;5048986;28;20024;-64
2023/04/26 08:07:44;;;;;;;6.22;1.45;;;18.60;99.90;;;;;;5042292;28;20021;-64
2023/04/26 08:10:32;;;;;;;7.97;1.52;;;18.50;99.90;;;;;;5054035;28;20500;-65
2023/04/26 08:13:02;;;;;;;14.25;2.75;;;18.40;99.90;;;;;;5038521;28;20045;-65
2023/04/26 08:15:31;;;;;;;6.05;1.70;;;18.40;99.90;;;;;;5047233;28;20031;-64
2023/04/26 08:18:02;;;;;;;7.90;1.50;;;18.30;99.90;;;;;;5043447;28;20060;-64
2023/04/26 08:20:32;;;;;;;5.90;1.70;;;18.20;99.90;;;;;;5024801;28;20112;-62
2023/04/26 08:23:00;;;;;;;6.80;2.08;;;18.20;99.90;;;;;;5055131;28;20029;-63
2023/04/26 08:25:28;;;;;;;11.45;2.08;;;18.10;99.90;;;;;;5037965;28;20016;-63
2023/04/26 08:27:55;;;;;;;7.13;1.75;;;18.00;99.90;;;;;;5026292;28;20440;-64
2023/04/26 08:33:18;;;;;;;9.50;1.45;;;17.90;99.90;;;;;;5038394;28;20505;-64
2023/04/26 08:35:45;;;;;;;18.85;3.90;;;17.80;99.90;;;;;;5022747;28;20543;-62
2023/04/26 08:38:13;;;;;;;16.00;2.08;;;17.80;99.90;;;;;;5040271;28;20037;-63
2023/04/26 08:40:43;;;;;;;10.40;2.13;;;17.80;99.90;;;;;;5021583;28;20095;-64
2023/04/26 08:43:14;;;;;;;12.77;2.72;;;17.70;99.90;;;;;;5036951;28;20033;-64
2023/04/26 08:45:46;;;;;;;11.40;1.63;;;17.70;99.90;;;;;;5038458;28;20028;-64
2023/04/26 08:48:16;;;;;;;11.07;1.70;;;17.70;99.90;;;;;;5033749;28;20045;-65
2023/04/26 08:50:48;;;;;;;11.60;1.48;;;17.60;99.90;;;;;;5024263;28;20028;-64
2023/04/26 08:53:20;;;;;;;6.25;1.50;;;17.60;99.90;;;;;;5041136;28;20029;-64
2023/04/26 08:55:49;;;;;;;7.75;1.80;;;17.40;99.90;;;;;;5037392;28;20506;-62
2023/04/26 08:58:20;;;;;;;7.78;2.22;;;17.40;99.90;;;;;;5037801;28;20486;-64
2023/04/26 09:00:49;;;;;;;9.32;1.80;;;17.30;99.90;;;;;;5023228;28;20039;-63
2023/04/26 09:03:17;;;;;;;10.98;2.25;;;17.30;99.90;;;;;;5041336;28;20101;-64
2023/04/26 09:05:48;;;;;;;8.70;1.50;;;17.40;99.90;;;;;;5035953;28;20033;-62
2023/04/26 09:08:20;;;;;;;10.30;1.50;;;17.50;99.90;;;;;;5040285;28;20090;-63
2023/04/26 09:10:48;;;;;;;11.35;1.63;;;17.50;99.90;;;;;;5032836;28;20036;-64
2023/04/26 09:13:15;;;;;;;7.93;1.50;;;17.50;99.90;;;;;;5034898;28;20390;-64
2023/04/26 09:15:50;;;;;;;7.15;1.50;;;17.40;99.90;;;;;;5030198;28;20032;-63
2023/04/26 09:18:22;;;;;;;8.65;1.92;;;17.30;99.90;;;;;;5015127;28;20033;-63
2023/04/26 09:21:04;;;;;;;7.88;1.30;;;17.30;99.90;;;;;;5041974;28;20413;-62
2023/04/26 09:23:31;;;;;;;5.47;1.23;;;17.20;99.90;;;;;;5041381;28;20094;-63
2023/04/26 09:26:30;;;;;;;11.02;1.83;;;17.10;99.90;;;;;;5024419;28;20082;-63
2023/04/26 09:29:16;;;;;;;7.30;1.45;;;16.90;99.90;;;;;;5035362;28;20044;-64
2023/04/26 09:31:46;;;;;;;10.13;1.48;;;16.70;99.90;;;;;;5036900;28;20024;-65
2023/04/26 09:34:14;;;;;;;5.20;1.15;;;16.50;99.90;;;;;;5039047;28;20053;-64
2023/04/26 09:36:55;;;;;;;9.30;2.42;;;16.60;99.90;;;;;;5014517;28;20029;-64
2023/04/26 09:39:43;;;;;;;7.78;1.60;;;16.70;99.90;;;;;;5016965;28;20041;-63
2023/04/26 09:42:10;;;;;;;8.88;2.50;;;16.80;99.90;;;;;;5040207;28;20555;-64
2023/04/26 09:44:38;;;;;;;14.23;1.60;;;16.90;99.90;;;;;;5040967;28;20365;-64
2023/04/26 09:47:11;;;;;;;9.48;1.67;;;17.00;99.90;;;;;;5024850;28;20049;-63
2023/04/26 09:50:03;;;;;;;;;;;;;;;;;;;;;
2023/04/26 09:52:32;;;;;;;11.35;1.88;;;17.00;99.90;;;;;;5038878;28;20072;-63
2023/04/26 09:55:01;;;;;;;8.85;1.88;;;17.10;99.90;;;;;;5038900;28;20053;-64
2023/04/26 09:57:31;;;;;;;9.77;1.60;;;17.20;99.90;;;;;;5020623;28;20131;-62
2023/04/26 09:59:59;;;;;;;9.77;2.13;;;17.20;99.90;;;;;;5023796;28;20551;-64
2023/04/26 10:02:28;;;;;;;9.80;1.50;;;17.00;99.90;;;;;;5038698;28;20672;-63
2023/04/26 10:04:58;;;;;;;8.70;1.70;;;17.00;99.90;;;;;;5046212;28;20505;-64
2023/04/26 10:07:33;;;;;;;8.45;1.55;;;17.00;99.90;;;;;;5019396;28;20159;-64
2023/04/26 10:10:03;;;;;;;6.50;1.50;;;16.80;99.90;;;;;;5028130;28;20047;-64
2023/04/26 10:12:31;;;;;;;9.80;1.95;;;16.70;99.90;;;;;;5028179;28;20044;-64
2023/04/26 10:14:58;;;;;;;9.48;1.92;;;16.50;99.90;;;;;;5014637;28;20036;-63
2023/04/26 10:17:26;;;;;;;8.32;1.40;;;16.40;99.90;;;;;;5039483;28;20132;-65
2023/04/26 10:19:58;;;;;;;11.13;1.63;;;16.40;99.90;;;;;;5038598;28;20358;-63
2023/04/26 10:22:32;;;;;;;9.88;1.75;;;16.40;99.90;;;;;;5018296;28;20521;-64
2023/04/26 10:25:00;;;;;;;9.18;1.80;;;16.30;99.90;;;;;;5019544;28;20528;-63
2023/04/26 10:27:45;;;;;;;7.18;1.77;;;16.40;99.90;;;;;;5039382;28;20037;-62
2023/04/26 10:30:18;;;;;;;5.63;1.30;;;16.40;99.90;;;;;;5036850;28;20103;-63
2023/04/26 10:32:58;;;;;;;8.18;1.63;;;16.40;99.90;;;;;;5027004;28;20067;-63
2023/04/26 10:35:28;;;;;;;6.40;1.85;;;16.50;99.90;;;;;;5023152;28;20082;-64
2023/04/26 10:38:01;;;;;;;7.38;2.22;;;16.50;99.90;;;;;;5041709;28;20174;-64
2023/04/26 10:40:29;;;;;;;6.20;1.30;;;16.50;99.90;;;;;;5046548;28;20032;-64
2023/04/26 10:43:09;;;;;;;12.25;1.90;;;16.50;99.90;;;;;;5043716;28;20049;-64
2023/04/26 10:45:38;;;;;;;8.55;2.22;;;16.60;99.90;;;;;;5042792;28;20101;-65
2023/04/26 10:48:30;;;;;;;6.25;1.77;;;16.50;99.90;;;;;;5044257;28;20072;-63
2023/04/26 10:51:01;;;;;;;11.57;1.60;;;16.50;99.90;;;;;;5020627;28;20067;-64
2023/04/26 10:53:50;;;;;;;11.63;1.75;;;16.50;99.90;;;;;;5023762;28;20046;-65
2023/04/26 10:56:27;;;;;;;7.47;1.77;;;16.60;99.90;;;;;;5025118;28;20060;-64
2023/04/26 10:59:11;;;;;;;10.85;2.65;;;16.60;99.90;;;;;;5047231;28;20127;-62
2023/04/26 11:01:40;;;;;;;12.00;1.67;;;16.70;99.90;;;;;;5039057;28;20070;-64
2023/04/26 11:04:12;;;;;;;7.55;2.05;;;16.70;99.90;;;;;;5040979;28;20327;-64
2023/04/26 11:07:03;;;;;;;7.68;1.67;;;16.80;99.90;;;;;;5045634;28;20036;-64
2023/04/26 11:09:48;;;;;;;12.63;2.10;;;16.80;99.90;;;;;;5022582;28;20440;-64
2023/04/26 11:12:16;;;;;;;9.52;1.40;;;16.80;99.90;;;;;;5019898;28;20038;-64
2023/04/26 11:14:45;;;;;;;7.68;1.48;;;16.80;99.90;;;;;;5043649;28;20079;-65
2023/04/26 11:17:12;;;;;;;11.75;1.70;;;16.70;99.90;;;;;;5040177;28;20029;-63
2023/04/26 11:19:41;;;;;;;10.18;1.60;;;16.70;99.90;;;;;;5038519;28;20072;-64
2023/04/26 11:22:09;;;;;;;5.47;1.70;;;16.60;99.90;;;;;;5043934;28;20393;-63
2023/04/26 11:24:40;;;;;;;5.68;1.58;;;16.50;99.90;;;;;;5043451;28;20021;-63
2023/04/26 11:27:11;;;;;;;7.30;1.95;;;16.40;99.90;;;;;;5025102;28;20029;-63
2023/04/26 11:29:39;;;;;;;7.63;1.70;;;16.30;99.90;;;;;;5023150;28;20481;-64
2023/04/26 11:32:07;;;;;;;8.70;1.85;;;16.30;99.90;;;;;;5025220;28;20082;-64
2023/04/26 11:34:38;;;;;;;9.15;2.15;;;16.20;99.90;;;;;;5044781;28;20040;-63
2023/04/26 11:37:07;;;;;;;7.63;2.13;;;16.20;99.90;;;;;;5044192;28;20021;-64
2023/04/26 11:39:37;;;;;;;7.55;2.17;;;16.20;99.90;;;;;;5047881;28;20170;-64
2023/04/26 11:42:08;;;;;;;9.93;1.80;;;16.20;99.90;;;;;;5040857;28;20032;-64
2023/04/26 11:44:40;;;;;;;9.80;1.70;;;16.10;99.90;;;;;;5027117;28;20118;-64
2023/04/26 11:47:08;;;;;;;12.82;2.20;;;16.10;99.90;;;;;;5039679;28;20041;-64
2023/04/26 11:49:39;;;;;;;9.63;2.13;;;16.10;99.90;;;;;;5022389;28;20091;-64
2023/04/26 11:52:08;;;;;;;9.35;2.40;;;16.10;99.90;;;;;;5043083;28;20025;-65
2023/04/26 11:54:36;;;;;;;8.88;2.00;;;16.10;99.90;;;;;;5043284;28;20037;-63
2023/04/26 11:57:14;;;;;;;8.40;1.75;;;16.10;99.90;;;;;;5023612;28;20239;-63
2023/04/26 11:59:42;;;;;;;6.50;1.73;;;16.00;99.90;;;;;;5043262;28;20029;-64
2023/04/26 12:02:09;;;;;;;12.95;1.67;;;16.00;99.90;;;;;;5035719;28;20025;-63
2023/04/26 12:04:40;;;;;;;6.60;1.67;;;15.90;99.90;;;;;;5039468;28;20021;-63
2023/04/26 12:07:08;;;;;;;8.07;2.33;;;15.80;99.90;;;;;;5043329;28;20397;-66
2023/04/26 12:09:40;;;;;;;8.40;2.50;;;15.70;99.90;;;;;;5026033;28;20060;-63
2023/04/26 12:12:08;;;;;;;5.68;1.55;;;15.60;99.90;;;;;;5027336;28;20035;-64
2023/04/26 12:14:40;;;;;;;8.48;1.98;;;15.40;99.90;;;;;;5037423;28;20034;-64
2023/04/26 12:17:09;;;;;;;8.15;2.15;;;15.30;99.90;;;;;;5022412;28;20105;-64
2023/04/26 12:19:38;;;;;;;7.63;1.90;;;15.20;99.90;;;;;;5026640;28;20551;-64
2023/04/26 12:22:07;;;;;;;9.50;1.70;;;15.10;99.90;;;;;;5036967;28;20052;-64
2023/04/26 12:24:38;;;;;;;9.15;1.65;;;15.00;99.90;;;;;;5047162;28;20089;-62
2023/04/26 12:27:06;;;;;;;8.80;2.00;;;14.80;99.90;;;;;;5041574;28;20029;-63
2023/04/26 12:29:34;;;;;;;6.93;1.92;;;14.80;99.90;;;;;;5036265;28;20129;-64
2023/04/26 12:32:03;;;;;;;14.15;1.85;;;14.60;99.90;;;;;;5046241;28;20477;-63
2023/04/26 12:34:30;;;;;;;6.43;1.80;;;14.60;99.90;;;;;;5039956;28;20032;-63
2023/04/26 12:36:57;;;;;;;5.65;1.67;;;14.50;99.90;;;;;;5042828;28;20494;-64
2023/04/26 12:39:25;;;;;;;6.72;1.98;;;14.50;99.90;;;;;;5042053;28;20029;-63
2023/04/26 12:41:53;;;;;;;4.75;1.50;;;14.40;99.90;;;;;;5046590;28;20449;-63
2023/04/26 12:44:21;;;;;;;10.90;1.95;;;14.40;99.90;;;;;;5040981;28;20446;-63
2023/04/26 12:46:48;;;;;;;9.25;1.77;;;14.30;99.90;;;;;;5024828;28;20048;-63
2023/04/26 12:49:19;;;;;;;6.28;1.80;;;14.30;99.90;;;;;;5045820;28;20036;-63
2023/04/26 12:51:47;;;;;;;7.00;1.40;;;14.30;99.90;;;;;;5037220;28;20025;-63
2023/04/26 12:54:15;;;;;;;10.18;1.55;;;14.30;99.90;;;;;;5038176;28;20033;-64
2023/04/26 12:56:45;;;;;;;11.15;1.80;;;14.30;99.90;;;;;;5046926;28;20013;-64
2023/04/26 12:59:12;;;;;;;11.63;1.38;;;14.30;99.90;;;;;;5042914;28;20032;-64